KROX/ROX METAR and TAF weather

Enter ICAO airport designator
Station Type Date Time Source
KROX METAR 2019/08/20 10:37 UTC NOAA

KROX 201037Z AUTO 02005KT 10SM SCT009 120 14/12 A2987 RMK AO2 LTG DSNT E AND S


Station Type Date Time Source
KROX Decoded METAR 2019/08/20 10:37 UTC NOAA

Roseau, Roseau Municipal Airport/Rudy Billberg Field, MN, United States (KROX) 48-51N 095-42W
Aug 20, 2019 - 06:37 AM EDT / 2019.08.20 1037 UTC
Wind: from the NNE (020 degrees) at 6 MPH (5 KT):0
Visibility: 10 mile(s):0
Sky conditions: partly cloudy
Weather: Lightning observed
Temperature: 57 F (14 C)
Dew Point: 53 F (12 C)
Relative Humidity: 87%
Pressure (altimeter): 29.87 in. Hg (1011 hPa)
ob: KROX 201037Z AUTO 02005KT 10SM SCT009 120 14/12 A2987 RMK AO2 LTG DSNT E AND S
cycle: 10

Station Type Date Time Source
KROX TAF UTC NOAA

Error!

Example: see airport list